ADDS METAR Data INFO
IDs: Format: Raw Decoded Include TAF

Data at: 1245 UTC 19 Oct 2017

KTXK 191153Z 00000KT 10SM CLR 10/10 A3019 RMK AO2 SLP219 T01000100 10156 20094 53008
KTXK 191053Z 00000KT 10SM CLR 09/09 A3018 RMK AO2 SLP217 T00940094
KTXK 190953Z AUTO 00000KT 10SM CLR 11/11 A3016 RMK AO2 SLP211 T01110106
KTXK 190853Z AUTO 00000KT 10SM CLR 12/11 A3016 RMK AO2 SLP209 T01170111 51005
KTXK 190753Z AUTO 00000KT 10SM CLR 12/11 A3016 RMK AO2 SLP209 T01220106
KTXK 190653Z AUTO 14004KT 10SM CLR 15/12 A3015 RMK AO2 SLP206 T01500117
KTXK 190553Z AUTO 13005KT 10SM CLR 16/12 A3015 RMK AO2 SLP204 T01560122 10217 20150 402670050 57002
KTXK 190453Z AUTO 13006KT 10SM CLR 17/12 A3015 RMK AO2 SLP205 T01670122
KTXK 190353Z AUTO 14008KT 10SM CLR 17/12 A3015 RMK AO2 SLP206 T01670117
KTXK 190253Z 13005KT 10SM CLR 18/11 A3015 RMK AO2 SLP207 T01780111 51009
KTXK 190153Z 12004KT 10SM CLR 17/11 A3015 RMK AO2 SLP206 T01720106
KTXK 190053Z 14005KT 10SM CLR 20/09 A3014 RMK AO2 SLP205 T02000094
KTXK 182353Z 17003KT 10SM CLR 22/09 A3012 RMK AO2 SLP199 T02170089 10267 20217 53003
KTXK 182253Z 17003KT 10SM CLR 26/07 A3012 RMK AO2 SLP196 T02560072
KTXK 182153Z 14005KT 10SM CLR 26/07 A3011 RMK AO2 SLP195 T02610067
KTXK 182053Z 09006KT 10SM CLR 26/08 A3011 RMK AO2 SLP195 T02610078 56026
KTXK 181953Z 20006KT 10SM CLR 26/08 A3013 RMK AO2 SLP199 T02560083
KTXK 181853Z 19005KT 10SM CLR 24/10 A3016 RMK AO2 SLP208 T02440100
KTXK 181753Z 19008KT 10SM CLR 23/10 A3019 RMK AO2 SLP222 T02330100 10233 20050 58008
KTXK 181653Z 17005KT 10SM CLR 22/11 A3021 RMK AO2 SLP229 T02170106
KTXK 181553Z 20006KT 10SM CLR 21/11 A3022 RMK AO2 SLP231 T02060111
KTXK 181453Z VRB04KT 10SM CLR 18/11 A3022 RMK AO2 SLP229 T01830111 53008
KTXK 181353Z 00000KT 10SM CLR 13/09 A3021 RMK AO2 SLP228 T01330094
KTXK 181253Z 12004KT 10SM CLR 09/07 A3020 RMK AO2 SLP223 T00940067
KTXK 181153Z 00000KT 10SM CLR 06/06 A3019 RMK AO2 SLP223 T00610056 10133 20061 53001
KTXK 181053Z 11003KT 10SM CLR 07/06 A3019 RMK AO2 SLP222 T00670056
KTXK 180953Z AUTO 12005KT 10SM CLR 09/06 A3018 RMK AO2 SLP217 T00940061
KTXK 180853Z AUTO 13004KT 10SM CLR 08/06 A3019 RMK AO2 SLP220 T00830061 58003
KTXK 180753Z AUTO 00000KT 10SM CLR 09/06 A3020 RMK AO2 SLP224 T00940061
KTXK 180653Z AUTO 14004KT 10SM CLR 13/06 A3020 RMK AO2 SLP223 T01330061
KTXK 180553Z AUTO 14006KT 10SM CLR 13/06 A3020 RMK AO2 SLP223 T01280061 10167 20106 402280039 51002
KTXK 180453Z AUTO 13005KT 10SM CLR 14/06 A3020 RMK AO2 SLP222 T01440061
KTXK 180353Z AUTO 13005KT 10SM CLR 14/06 A3020 RMK AO2 SLP223 T01440056
KTXK 180253Z AUTO 12004KT 10SM CLR 14/06 A3019 RMK AO2 SLP221 T01440056 51006
KTXK 180153Z 11004KT 10SM CLR 15/06 A3019 RMK AO2 SLP220 T01500056
KTXK 180053Z 00000KT 10SM CLR 16/05 A3018 RMK AO2 SLP218 T01560050